sensor_id;sensor_type;location;lat;lon;timestamp;pressure;altitude;pressure_sealevel;temperature;humidity
71573;BME280;59408;51.032;9.410;2023-12-04T00:01:05;99256.81;;;-3.83;99.33
71573;BME280;59408;51.032;9.410;2023-12-04T00:03:31;99249.84;;;-3.84;99.56
71573;BME280;59408;51.032;9.410;2023-12-04T00:05:59;99240.47;;;-3.86;100.00
71573;BME280;59408;51.032;9.410;2023-12-04T00:08:26;99232.25;;;-3.85;100.00
71573;BME280;59408;51.032;9.410;2023-12-04T00:10:52;99224.84;;;-3.83;100.00
71573;BME280;59408;51.032;9.410;2023-12-04T00:13:19;99205.38;;;-3.83;99.57
71573;BME280;59408;51.032;9.410;2023-12-04T00:15:45;99207.00;;;-3.82;100.00
71573;BME280;59408;51.032;9.410;2023-12-04T00:18:13;99184.28;;;-3.85;100.00
71573;BME280;59408;51.032;9.410;2023-12-04T00:20:40;99192.03;;;-3.83;99.97
71573;BME280;59408;51.032;9.410;2023-12-04T00:23:06;99185.09;;;-3.84;99.55
71573;BME280;59408;51.032;9.410;2023-12-04T00:25:33;99180.56;;;-3.84;99.57
71573;BME280;59408;51.032;9.410;2023-12-04T00:27:59;99176.88;;;-3.83;99.44
71573;BME280;59408;51.032;9.410;2023-12-04T00:30:26;99163.28;;;-3.81;99.03
71573;BME280;59408;51.032;9.410;2023-12-04T00:32:52;99157.13;;;-3.82;99.99
71573;BME280;59408;51.032;9.410;2023-12-04T00:35:20;99157.41;;;-3.83;99.10
71573;BME280;59408;51.032;9.410;2023-12-04T00:37:47;99155.44;;;-3.88;99.66
71573;BME280;59408;51.032;9.410;2023-12-04T00:40:14;99155.22;;;-3.86;100.00
71573;BME280;59408;51.032;9.410;2023-12-04T00:42:40;99152.22;;;-3.90;100.00
71573;BME280;59408;51.032;9.410;2023-12-04T00:45:07;99146.34;;;-3.92;100.00
71573;BME280;59408;51.032;9.410;2023-12-04T00:47:34;99146.59;;;-3.93;99.77
71573;BME280;59408;51.032;9.410;2023-12-04T00:50:01;99145.53;;;-3.92;100.00
71573;BME280;59408;51.032;9.410;2023-12-04T00:52:30;99140.22;;;-3.92;100.00
71573;BME280;59408;51.032;9.410;2023-12-04T00:54:57;99146.59;;;-3.93;100.00
71573;BME280;59408;51.032;9.410;2023-12-04T00:57:23;99173.00;;;-3.92;98.74
71573;BME280;59408;51.032;9.410;2023-12-04T00:59:50;99168.94;;;-3.94;97.60
71573;BME280;59408;51.032;9.410;2023-12-04T01:02:16;99169.97;;;-3.95;98.97
71573;BME280;59408;51.032;9.410;2023-12-04T01:04:43;99168.59;;;-3.98;99.84
71573;BME280;59408;51.032;9.410;2023-12-04T01:07:09;99160.03;;;-4.00;99.69
71573;BME280;59408;51.032;9.410;2023-12-04T01:09:37;99147.53;;;-3.99;99.52
71573;BME280;59408;51.032;9.410;2023-12-04T01:12:05;99141.66;;;-4.02;100.00
71573;BME280;59408;51.032;9.410;2023-12-04T01:14:31;99129.84;;;-4.06;100.00
71573;BME280;59408;51.032;9.410;2023-12-04T01:16:58;99134.63;;;-4.08;100.00
71573;BME280;59408;51.032;9.410;2023-12-04T01:19:24;99133.25;;;-4.10;99.73
71573;BME280;59408;51.032;9.410;2023-12-04T01:21:51;99130.59;;;-4.10;98.97
71573;BME280;59408;51.032;9.410;2023-12-04T01:24:17;99135.41;;;-4.07;98.14
71573;BME280;59408;51.032;9.410;2023-12-04T01:26:45;99132.53;;;-4.06;99.02
71573;BME280;59408;51.032;9.410;2023-12-04T01:29:12;99132.53;;;-4.06;98.16
71573;BME280;59408;51.032;9.410;2023-12-04T01:31:38;99131.81;;;-4.01;96.50
71573;BME280;59408;51.032;9.410;2023-12-04T01:34:05;99129.97;;;-4.00;96.75
71573;BME280;59408;51.032;9.410;2023-12-04T01:36:32;99124.63;;;-4.00;95.64
71573;BME280;59408;51.032;9.410;2023-12-04T01:38:59;99127.84;;;-3.98;95.76
71573;BME280;59408;51.032;9.410;2023-12-04T01:41:25;99126.78;;;-3.97;95.37
71573;BME280;59408;51.032;9.410;2023-12-04T01:43:53;99132.44;;;-3.94;95.34
71573;BME280;59408;51.032;9.410;2023-12-04T01:46:20;99133.25;;;-3.93;94.35
71573;BME280;59408;51.032;9.410;2023-12-04T01:48:46;99121.56;;;-3.92;94.02
71573;BME280;59408;51.032;9.410;2023-12-04T01:51:13;99118.91;;;-3.92;94.79
71573;BME280;59408;51.032;9.410;2023-12-04T01:53:41;99122.91;;;-3.90;94.44
71573;BME280;59408;51.032;9.410;2023-12-04T01:56:10;99121.06;;;-3.89;94.21
71573;BME280;59408;51.032;9.410;2023-12-04T01:58:37;99123.25;;;-3.86;94.79
71573;BME280;59408;51.032;9.410;2023-12-04T02:01:06;99123.72;;;-3.89;95.85
71573;BME280;59408;51.032;9.410;2023-12-04T02:03:35;99113.31;;;-3.91;95.79
71573;BME280;59408;51.032;9.410;2023-12-04T02:06:02;99104.25;;;-3.90;96.83
71573;BME280;59408;51.032;9.410;2023-12-04T02:08:30;99105.06;;;-3.89;95.46
71573;BME280;59408;51.032;9.410;2023-12-04T02:10:57;99104.84;;;-3.88;96.43
71573;BME280;59408;51.032;9.410;2023-12-04T02:13:23;99109.13;;;-3.87;94.78
71573;BME280;59408;51.032;9.410;2023-12-04T02:15:53;99106.44;;;-3.87;95.58
71573;BME280;59408;51.032;9.410;2023-12-04T02:18:22;99108.88;;;-3.85;96.42
71573;BME280;59408;51.032;9.410;2023-12-04T02:20:49;99103.53;;;-3.85;97.74
71573;BME280;59408;51.032;9.410;2023-12-04T02:23:16;99107.09;;;-3.80;93.01
71573;BME280;59408;51.032;9.410;2023-12-04T02:25:44;99108.78;;;-3.74;93.16
71573;BME280;59408;51.032;9.410;2023-12-04T02:28:13;99110.81;;;-3.64;91.95
71573;BME280;59408;51.032;9.410;2023-12-04T02:30:41;99099.06;;;-3.63;90.91
71573;BME280;59408;51.032;9.410;2023-12-04T02:33:11;99096.66;;;-3.65;90.50
71573;BME280;59408;51.032;9.410;2023-12-04T02:35:39;99095.84;;;-3.65;91.22
71573;BME280;59408;51.032;9.410;2023-12-04T02:38:09;99092.38;;;-3.66;91.13
71573;BME280;59408;51.032;9.410;2023-12-04T02:40:36;99076.63;;;-3.67;91.27
71573;BME280;59408;51.032;9.410;2023-12-04T02:43:04;99084.38;;;-3.66;90.20
71573;BME280;59408;51.032;9.410;2023-12-04T02:45:31;99078.25;;;-3.66;90.55
71573;BME280;59408;51.032;9.410;2023-12-04T02:47:58;99077.69;;;-3.68;91.33
71573;BME280;59408;51.032;9.410;2023-12-04T02:50:24;99063.78;;;-3.70;91.88
71573;BME280;59408;51.032;9.410;2023-12-04T02:52:51;99053.63;;;-3.73;91.66
71573;BME280;59408;51.032;9.410;2023-12-04T02:55:18;99060.25;;;-3.76;92.44
71573;BME280;59408;51.032;9.410;2023-12-04T02:57:44;99061.78;;;-3.80;91.49
71573;BME280;59408;51.032;9.410;2023-12-04T03:00:14;99055.66;;;-3.80;92.27
71573;BME280;59408;51.032;9.410;2023-12-04T03:02:40;99044.94;;;-3.85;93.15
71573;BME280;59408;51.032;9.410;2023-12-04T03:05:07;99041.94;;;-3.89;94.20
71573;BME280;59408;51.032;9.410;2023-12-04T03:07:33;99036.78;;;-3.95;94.83
71573;BME280;59408;51.032;9.410;2023-12-04T03:10:00;99037.03;;;-3.97;94.34
71573;BME280;59408;51.032;9.410;2023-12-04T03:12:27;99036.22;;;-3.97;95.28
71573;BME280;59408;51.032;9.410;2023-12-04T03:14:53;99041.06;;;-3.94;95.32
71573;BME280;59408;51.032;9.410;2023-12-04T03:17:21;99033.00;;;-3.99;95.35
71573;BME280;59408;51.032;9.410;2023-12-04T03:19:47;99043.97;;;-3.96;93.55
71573;BME280;59408;51.032;9.410;2023-12-04T03:22:15;99039.44;;;-3.95;94.14
71573;BME280;59408;51.032;9.410;2023-12-04T03:24:42;99034.13;;;-3.95;94.89
71573;BME280;59408;51.032;9.410;2023-12-04T03:27:09;99032.75;;;-3.98;94.61
71573;BME280;59408;51.032;9.410;2023-12-04T03:29:35;99027.94;;;-4.01;95.02
71573;BME280;59408;51.032;9.410;2023-12-04T03:32:02;99031.13;;;-3.99;92.50
71573;BME280;59408;51.032;9.410;2023-12-04T03:34:30;99034.84;;;-4.00;93.33
71573;BME280;59408;51.032;9.410;2023-12-04T03:36:57;99025.81;;;-3.99;93.22
71573;BME280;59408;51.032;9.410;2023-12-04T03:39:23;99021.78;;;-4.02;92.71
71573;BME280;59408;51.032;9.410;2023-12-04T03:41:50;99030.84;;;-4.03;93.86
71573;BME280;59408;51.032;9.410;2023-12-04T03:44:17;99018.81;;;-4.05;93.96
71573;BME280;59408;51.032;9.410;2023-12-04T03:46:43;99019.03;;;-4.07;94.44
71573;BME280;59408;51.032;9.410;2023-12-04T03:49:10;99018.00;;;-4.06;94.93
71573;BME280;59408;51.032;9.410;2023-12-04T03:51:38;99012.66;;;-4.06;94.09
71573;BME280;59408;51.032;9.410;2023-12-04T03:54:04;99018.00;;;-4.06;93.58
71573;BME280;59408;51.032;9.410;2023-12-04T03:56:31;99010.56;;;-4.04;93.50
71573;BME280;59408;51.032;9.410;2023-12-04T03:58:57;99005.72;;;-4.07;93.62
71573;BME280;59408;51.032;9.410;2023-12-04T04:01:24;99000.63;;;-4.08;94.18
71573;BME280;59408;51.032;9.410;2023-12-04T04:03:50;98997.72;;;-4.07;93.82
71573;BME280;59408;51.032;9.410;2023-12-04T04:06:17;98997.44;;;-4.10;95.45
71573;BME280;59408;51.032;9.410;2023-12-04T04:08:45;98987.66;;;-4.05;92.56
71573;BME280;59408;51.032;9.410;2023-12-04T04:11:12;98994.34;;;-4.02;92.00
71573;BME280;59408;51.032;9.410;2023-12-04T04:13:38;98987.16;;;-4.02;91.97
71573;BME280;59408;51.032;9.410;2023-12-04T04:16:06;98980.94;;;-4.07;94.35
71573;BME280;59408;51.032;9.410;2023-12-04T04:18:33;98987.03;;;-4.12;96.10
71573;BME280;59408;51.032;9.410;2023-12-04T04:21:00;98984.50;;;-4.18;96.02
71573;BME280;59408;51.032;9.410;2023-12-04T04:23:26;98981.78;;;-4.23;95.92
71573;BME280;59408;51.032;9.410;2023-12-04T04:25:54;98976.94;;;-4.26;97.08
71573;BME280;59408;51.032;9.410;2023-12-04T04:28:21;98972.13;;;-4.29;97.23
71573;BME280;59408;51.032;9.410;2023-12-04T04:30:47;98975.81;;;-4.30;97.06
71573;BME280;59408;51.032;9.410;2023-12-04T04:33:14;98966.47;;;-4.33;97.29
71573;BME280;59408;51.032;9.410;2023-12-04T04:35:41;98964.03;;;-4.34;98.87
71573;BME280;59408;51.032;9.410;2023-12-04T04:38:08;98966.13;;;-4.36;98.46
71573;BME280;59408;51.032;9.410;2023-12-04T04:40:35;98964.53;;;-4.37;98.17
71573;BME280;59408;51.032;9.410;2023-12-04T04:43:03;98966.13;;;-4.36;97.84
71573;BME280;59408;51.032;9.410;2023-12-04T04:45:29;98959.22;;;-4.37;97.87
71573;BME280;59408;51.032;9.410;2023-12-04T04:47:56;98959.47;;;-4.39;97.77
71573;BME280;59408;51.032;9.410;2023-12-04T04:50:23;98958.41;;;-4.38;98.30
71573;BME280;59408;51.032;9.410;2023-12-04T04:52:50;98953.31;;;-4.40;98.60
71573;BME280;59408;51.032;9.410;2023-12-04T04:55:17;98948.81;;;-4.39;100.00
71573;BME280;59408;51.032;9.410;2023-12-04T04:58:04;98947.44;;;-4.42;99.19
71573;BME280;59408;51.032;9.410;2023-12-04T05:00:31;98936.78;;;-4.42;98.70
71573;BME280;59408;51.032;9.410;2023-12-04T05:02:58;98936.53;;;-4.40;98.67
71573;BME280;59408;51.032;9.410;2023-12-04T05:05:24;98924.03;;;-4.40;98.72
71573;BME280;59408;51.032;9.410;2023-12-04T05:07:51;98922.66;;;-4.42;98.64
71573;BME280;59408;51.032;9.410;2023-12-04T05:10:17;98921.88;;;-4.43;99.60
71573;BME280;59408;51.032;9.410;2023-12-04T05:12:44;98921.63;;;-4.41;99.62
71573;BME280;59408;51.032;9.410;2023-12-04T05:15:12;98914.44;;;-4.41;100.00
71573;BME280;59408;51.032;9.410;2023-12-04T05:17:38;98926.19;;;-4.36;99.62
71573;BME280;59408;51.032;9.410;2023-12-04T05:20:06;98911.31;;;-4.37;99.30
71573;BME280;59408;51.032;9.410;2023-12-04T05:22:34;98918.22;;;-4.36;99.38
71573;BME280;59408;51.032;9.410;2023-12-04T05:25:01;98916.88;;;-4.39;99.65
71573;BME280;59408;51.032;9.410;2023-12-04T05:27:27;98921.16;;;-4.38;99.89
71573;BME280;59408;51.032;9.410;2023-12-04T05:29:53;98920.88;;;-4.36;99.90
71573;BME280;59408;51.032;9.410;2023-12-04T05:32:21;98919.03;;;-4.36;100.00
71573;BME280;59408;51.032;9.410;2023-12-04T05:34:48;98920.63;;;-4.35;100.00
71573;BME280;59408;51.032;9.410;2023-12-04T05:37:15;98929.19;;;-4.33;100.00
71573;BME280;59408;51.032;9.410;2023-12-04T05:39:41;98928.38;;;-4.33;100.00
71573;BME280;59408;51.032;9.410;2023-12-04T05:42:08;98923.63;;;-4.31;100.00
71573;BME280;59408;51.032;9.410;2023-12-04T05:44:34;98920.47;;;-4.28;99.34
71573;BME280;59408;51.032;9.410;2023-12-04T05:47:01;98924.72;;;-4.27;99.34
71573;BME280;59408;51.032;9.410;2023-12-04T05:49:29;98923.69;;;-4.26;99.78
71573;BME280;59408;51.032;9.410;2023-12-04T05:51:56;98921.81;;;-4.26;99.67
71573;BME280;59408;51.032;9.410;2023-12-04T05:54:22;98917.31;;;-4.25;98.16
71573;BME280;59408;51.032;9.410;2023-12-04T05:56:49;98924.25;;;-4.24;97.39
71573;BME280;59408;51.032;9.410;2023-12-04T05:59:15;98922.41;;;-4.24;98.58
71573;BME280;59408;51.032;9.410;2023-12-04T06:01:42;98919.16;;;-4.26;97.66
71573;BME280;59408;51.032;9.410;2023-12-04T06:04:08;98921.28;;;-4.28;99.78
71573;BME280;59408;51.032;9.410;2023-12-04T06:06:36;98916.44;;;-4.31;98.98
71573;BME280;59408;51.032;9.410;2023-12-04T06:09:03;98914.03;;;-4.32;98.82
71573;BME280;59408;51.032;9.410;2023-12-04T06:11:29;98917.16;;;-4.35;98.84
71573;BME280;59408;51.032;9.410;2023-12-04T06:13:56;98911.84;;;-4.35;97.94
71573;BME280;59408;51.032;9.410;2023-12-04T06:16:22;98904.66;;;-4.35;98.33
71573;BME280;59408;51.032;9.410;2023-12-04T06:18:49;98908.13;;;-4.34;100.00
71573;BME280;59408;51.032;9.410;2023-12-04T06:21:16;98909.44;;;-4.37;99.81
71573;BME280;59408;51.032;9.410;2023-12-04T06:23:44;98901.13;;;-4.41;100.00
71573;BME280;59408;51.032;9.410;2023-12-04T06:26:12;98904.03;;;-4.42;100.00
71573;BME280;59408;51.032;9.410;2023-12-04T06:28:39;98892.59;;;-4.43;100.00
71573;BME280;59408;51.032;9.410;2023-12-04T06:31:07;98903.31;;;-4.37;97.80
71573;BME280;59408;51.032;9.410;2023-12-04T06:33:34;98886.84;;;-4.34;98.17
71573;BME280;59408;51.032;9.410;2023-12-04T06:36:01;98885.38;;;-4.25;96.66
71573;BME280;59408;51.032;9.410;2023-12-04T06:38:31;98883.59;;;-4.20;96.60
71573;BME280;59408;51.032;9.410;2023-12-04T06:41:01;98879.88;;;-4.19;95.39
71573;BME280;59408;51.032;9.410;2023-12-04T06:43:28;98880.75;;;-4.13;96.11
71573;BME280;59408;51.032;9.410;2023-12-04T06:45:55;98877.84;;;-4.12;94.75
71573;BME280;59408;51.032;9.410;2023-12-04T06:48:22;98871.03;;;-4.03;95.94
71573;BME280;59408;51.032;9.410;2023-12-04T06:50:49;98877.63;;;-4.05;94.97
71573;BME280;59408;51.032;9.410;2023-12-04T06:53:15;98873.94;;;-4.04;95.24
71573;BME280;59408;51.032;9.410;2023-12-04T06:55:42;98875.53;;;-4.03;94.88
71573;BME280;59408;51.032;9.410;2023-12-04T06:58:10;98859.81;;;-4.05;95.16
71573;BME280;59408;51.032;9.410;2023-12-04T07:00:36;98854.78;;;-4.01;94.57
71573;BME280;59408;51.032;9.410;2023-12-04T07:03:03;98857.75;;;-3.97;94.63
71573;BME280;59408;51.032;9.410;2023-12-04T07:05:30;98851.38;;;-3.96;94.78
71573;BME280;59408;51.032;9.410;2023-12-04T07:07:56;98848.94;;;-3.98;94.00
71573;BME280;59408;51.032;9.410;2023-12-04T07:10:23;98841.28;;;-3.94;94.09
71573;BME280;59408;51.032;9.410;2023-12-04T07:12:49;98842.66;;;-3.92;94.79
71573;BME280;59408;51.032;9.410;2023-12-04T07:15:17;98839.41;;;-3.94;93.69
71573;BME280;59408;51.032;9.410;2023-12-04T07:17:44;98833.84;;;-3.92;94.04
71573;BME280;59408;51.032;9.410;2023-12-04T07:20:11;98834.91;;;-3.93;94.92
71573;BME280;59408;51.032;9.410;2023-12-04T07:22:37;98837.03;;;-3.90;95.19
71573;BME280;59408;51.032;9.410;2023-12-04T07:25:05;98834.13;;;-3.89;95.47
71573;BME280;59408;51.032;9.410;2023-12-04T07:27:31;98831.78;;;-3.85;93.73
71573;BME280;59408;51.032;9.410;2023-12-04T07:29:58;98834.50;;;-3.80;93.50
71573;BME280;59408;51.032;9.410;2023-12-04T07:32:26;98843.13;;;-3.73;91.74
71573;BME280;59408;51.032;9.410;2023-12-04T07:34:52;98844.53;;;-3.66;90.94
71573;BME280;59408;51.032;9.410;2023-12-04T07:37:19;98847.47;;;-3.62;90.60
71573;BME280;59408;51.032;9.410;2023-12-04T07:39:45;98839.78;;;-3.58;90.05
71573;BME280;59408;51.032;9.410;2023-12-04T07:42:12;98844.06;;;-3.57;89.14
71573;BME280;59408;51.032;9.410;2023-12-04T07:44:39;98844.34;;;-3.54;89.90
71573;BME280;59408;51.032;9.410;2023-12-04T07:47:05;98835.56;;;-3.54;89.24
71573;BME280;59408;51.032;9.410;2023-12-04T07:49:33;98830.28;;;-3.49;88.02
71573;BME280;59408;51.032;9.410;2023-12-04T07:51:59;98835.66;;;-3.44;88.83
71573;BME280;59408;51.032;9.410;2023-12-04T07:54:26;98830.88;;;-3.42;88.76
71573;BME280;59408;51.032;9.410;2023-12-04T07:56:54;98826.13;;;-3.35;88.57
71573;BME280;59408;51.032;9.410;2023-12-04T07:59:20;98824.88;;;-3.28;88.55
71573;BME280;59408;51.032;9.410;2023-12-04T08:01:47;98827.59;;;-3.22;87.01
71573;BME280;59408;51.032;9.410;2023-12-04T08:04:13;98817.50;;;-3.15;87.70
71573;BME280;59408;51.032;9.410;2023-12-04T08:06:41;98821.03;;;-3.10;87.79
71573;BME280;59408;51.032;9.410;2023-12-04T08:09:08;98819.19;;;-3.04;87.15
71573;BME280;59408;51.032;9.410;2023-12-04T08:11:35;98810.97;;;-2.98;85.62
71573;BME280;59408;51.032;9.410;2023-12-04T08:14:01;98825.44;;;-2.89;85.71
71573;BME280;59408;51.032;9.410;2023-12-04T08:16:28;98823.09;;;-2.80;85.93
71573;BME280;59408;51.032;9.410;2023-12-04T08:18:55;98822.34;;;-2.70;85.30
71573;BME280;59408;51.032;9.410;2023-12-04T08:21:22;98821.63;;;-2.61;85.20
71573;BME280;59408;51.032;9.410;2023-12-04T08:23:50;98827.53;;;-2.54;83.82
71573;BME280;59408;51.032;9.410;2023-12-04T08:26:21;98824.34;;;-2.51;83.49
71573;BME280;59408;51.032;9.410;2023-12-04T08:28:47;98831.34;;;-2.39;83.00
71573;BME280;59408;51.032;9.410;2023-12-04T08:31:14;98830.84;;;-2.31;82.95
71573;BME280;59408;51.032;9.410;2023-12-04T08:33:40;98827.38;;;-2.32;82.61
71573;BME280;59408;51.032;9.410;2023-12-04T08:36:07;98831.41;;;-2.29;81.57
71573;BME280;59408;51.032;9.410;2023-12-04T08:38:34;98822.34;;;-2.18;79.12
71573;BME280;59408;51.032;9.410;2023-12-04T08:41:03;98824.50;;;-2.15;79.68
71573;BME280;59408;51.032;9.410;2023-12-04T08:43:30;98818.94;;;-2.03;80.66
71573;BME280;59408;51.032;9.410;2023-12-04T08:45:56;98827.22;;;-2.00;79.41
71573;BME280;59408;51.032;9.410;2023-12-04T08:48:23;98822.47;;;-1.88;79.35
71573;BME280;59408;51.032;9.410;2023-12-04T08:50:49;98811.78;;;-1.88;79.43
71573;BME280;59408;51.032;9.410;2023-12-04T08:53:16;98819.28;;;-1.85;77.75
71573;BME280;59408;51.032;9.410;2023-12-04T08:55:42;98817.16;;;-1.83;78.17
71573;BME280;59408;51.032;9.410;2023-12-04T08:58:10;98827.84;;;-1.78;77.03
71573;BME280;59408;51.032;9.410;2023-12-04T09:00:37;98813.16;;;-1.75;77.91
71573;BME280;59408;51.032;9.410;2023-12-04T09:03:03;98803.28;;;-1.69;79.39
71573;BME280;59408;51.032;9.410;2023-12-04T09:05:38;98790.97;;;-1.70;78.84
71573;BME280;59408;51.032;9.410;2023-12-04T09:08:05;98792.03;;;-1.71;77.97
71573;BME280;59408;51.032;9.410;2023-12-04T09:10:35;98783.19;;;-1.72;77.51
71573;BME280;59408;51.032;9.410;2023-12-04T09:13:22;98783.22;;;-1.62;77.47
71573;BME280;59408;51.032;9.410;2023-12-04T09:15:49;98779.75;;;-1.52;78.74
71573;BME280;59408;51.032;9.410;2023-12-04T09:18:16;98782.72;;;-1.49;78.01
71573;BME280;59408;51.032;9.410;2023-12-04T09:20:43;98779.50;;;-1.46;76.69
71573;BME280;59408;51.032;9.410;2023-12-04T09:23:10;98776.81;;;-1.41;77.59
71573;BME280;59408;51.032;9.410;2023-12-04T09:25:36;98775.50;;;-1.28;77.70
71573;BME280;59408;51.032;9.410;2023-12-04T09:28:03;98773.34;;;-1.26;77.33
71573;BME280;59408;51.032;9.410;2023-12-04T09:30:33;98773.88;;;-1.14;76.83
71573;BME280;59408;51.032;9.410;2023-12-04T09:33:00;98764.25;;;-1.15;76.38
71573;BME280;59408;51.032;9.410;2023-12-04T09:35:26;98769.06;;;-1.07;75.50
71573;BME280;59408;51.032;9.410;2023-12-04T09:37:53;98760.78;;;-1.10;73.83
71573;BME280;59408;51.032;9.410;2023-12-04T09:40:20;98759.97;;;-1.11;72.80
71573;BME280;59408;51.032;9.410;2023-12-04T09:42:46;98751.41;;;-1.03;76.00
71573;BME280;59408;51.032;9.410;2023-12-04T09:45:13;98750.31;;;-1.02;74.33
71573;BME280;59408;51.032;9.410;2023-12-04T09:47:42;98759.41;;;-0.92;73.36
71573;BME280;59408;51.032;9.410;2023-12-04T09:50:10;98745.22;;;-0.93;71.89
71573;BME280;59408;51.032;9.410;2023-12-04T09:52:37;98742.22;;;-0.71;71.91
71573;BME280;59408;51.032;9.410;2023-12-04T09:55:04;98735.22;;;-0.62;71.55
71573;BME280;59408;51.032;9.410;2023-12-04T09:57:31;98722.59;;;-0.46;71.77
71573;BME280;59408;51.032;9.410;2023-12-04T09:59:59;98727.59;;;-0.35;71.95
71573;BME280;59408;51.032;9.410;2023-12-04T10:02:26;98725.50;;;-0.38;71.98
71573;BME280;59408;51.032;9.410;2023-12-04T10:04:55;98724.13;;;-0.35;72.45
71573;BME280;59408;51.032;9.410;2023-12-04T10:07:22;98722.81;;;-0.38;73.11
71573;BME280;59408;51.032;9.410;2023-12-04T10:09:48;98718.81;;;-0.45;74.48
71573;BME280;59408;51.032;9.410;2023-12-04T10:12:19;98705.94;;;-0.38;73.40
71573;BME280;59408;51.032;9.410;2023-12-04T10:14:45;98703.84;;;-0.46;74.47
71573;BME280;59408;51.032;9.410;2023-12-04T10:17:15;98701.63;;;-0.34;72.93
71573;BME280;59408;51.032;9.410;2023-12-04T10:19:42;98690.53;;;-0.17;73.10
71573;BME280;59408;51.032;9.410;2023-12-04T10:22:10;98675.50;;;-0.13;72.58
71573;BME280;59408;51.032;9.410;2023-12-04T10:24:38;98680.91;;;-0.18;72.85
71573;BME280;59408;51.032;9.410;2023-12-04T10:27:06;98681.19;;;-0.25;73.91
71573;BME280;59408;51.032;9.410;2023-12-04T10:29:41;98669.19;;;-0.28;74.37
71573;BME280;59408;51.032;9.410;2023-12-04T10:32:07;98660.63;;;-0.35;73.37
71573;BME280;59408;51.032;9.410;2023-12-04T10:34:34;98653.16;;;-0.43;72.59
71573;BME280;59408;51.032;9.410;2023-12-04T10:37:02;98647.78;;;-0.38;72.86
71573;BME280;59408;51.032;9.410;2023-12-04T10:39:31;98644.91;;;-0.46;72.18
71573;BME280;59408;51.032;9.410;2023-12-04T10:42:01;98642.19;;;-0.41;73.30
71573;BME280;59408;51.032;9.410;2023-12-04T10:44:30;98627.41;;;-0.34;73.80
71573;BME280;59408;51.032;9.410;2023-12-04T10:46:57;98636.78;;;-0.36;73.20
71573;BME280;59408;51.032;9.410;2023-12-04T10:49:26;98639.94;;;-0.24;71.24
71573;BME280;59408;51.032;9.410;2023-12-04T10:51:55;98639.66;;;-0.22;71.78
71573;BME280;59408;51.032;9.410;2023-12-04T10:54:22;98630.13;;;-0.39;69.81
71573;BME280;59408;51.032;9.410;2023-12-04T10:56:51;98632.69;;;-0.23;70.95
71573;BME280;59408;51.032;9.410;2023-12-04T10:59:21;98623.38;;;0.03;71.21
71573;BME280;59408;51.032;9.410;2023-12-04T11:01:51;98621.84;;;-0.03;67.83
71573;BME280;59408;51.032;9.410;2023-12-04T11:04:21;98622.63;;;-0.03;68.57
71573;BME280;59408;51.032;9.410;2023-12-04T11:06:52;98618.13;;;0.27;69.12
71573;BME280;59408;51.032;9.410;2023-12-04T11:09:20;98619.09;;;0.36;67.99
71573;BME280;59408;51.032;9.410;2023-12-04T11:11:53;98596.69;;;0.50;68.31
71573;BME280;59408;51.032;9.410;2023-12-04T11:14:25;98588.28;;;0.57;69.23
71573;BME280;59408;51.032;9.410;2023-12-04T11:16:59;98587.84;;;0.50;68.27
71573;BME280;59408;51.032;9.410;2023-12-04T11:19:30;98585.44;;;0.48;68.12
71573;BME280;59408;51.032;9.410;2023-12-04T11:21:59;98576.66;;;0.43;67.74
71573;BME280;59408;51.032;9.410;2023-12-04T11:24:25;98577.25;;;0.35;68.29
71573;BME280;59408;51.032;9.410;2023-12-04T11:26:54;98581.56;;;0.36;69.63
71573;BME280;59408;51.032;9.410;2023-12-04T11:29:22;98581.59;;;0.31;67.14
71573;BME280;59408;51.032;9.410;2023-12-04T11:31:50;98573.53;;;0.31;68.44
71573;BME280;59408;51.032;9.410;2023-12-04T11:34:16;98569.72;;;0.37;68.96
71573;BME280;59408;51.032;9.410;2023-12-04T11:36:43;98562.06;;;0.25;67.65
71573;BME280;59408;51.032;9.410;2023-12-04T11:39:10;98566.28;;;0.31;67.65
71573;BME280;59408;51.032;9.410;2023-12-04T11:41:37;98563.66;;;0.26;67.64
71573;BME280;59408;51.032;9.410;2023-12-04T11:44:11;98557.66;;;0.63;68.06
71573;BME280;59408;51.032;9.410;2023-12-04T11:46:38;98560.72;;;0.75;68.82
71573;BME280;59408;51.032;9.410;2023-12-04T11:49:27;98551.22;;;0.83;67.35
71573;BME280;59408;51.032;9.410;2023-12-04T11:51:54;98549.06;;;0.85;66.83
71573;BME280;59408;51.032;9.410;2023-12-04T11:54:22;98544.38;;;0.96;66.62
71573;BME280;59408;51.032;9.410;2023-12-04T11:56:59;98543.41;;;0.86;66.65
71573;BME280;59408;51.032;9.410;2023-12-04T11:59:27;98541.00;;;0.85;67.10
71573;BME280;59408;51.032;9.410;2023-12-04T12:01:55;98530.56;;;0.83;65.86
71573;BME280;59408;51.032;9.410;2023-12-04T12:04:22;98520.41;;;0.80;65.58
71573;BME280;59408;51.032;9.410;2023-12-04T12:06:49;98522.88;;;0.96;65.64
71573;BME280;59408;51.032;9.410;2023-12-04T12:09:16;98512.66;;;0.98;63.94
71573;BME280;59408;51.032;9.410;2023-12-04T12:11:43;98514.41;;;1.07;64.34
71573;BME280;59408;51.032;9.410;2023-12-04T12:14:10;98514.03;;;0.95;65.04
71573;BME280;59408;51.032;9.410;2023-12-04T12:16:38;98505.47;;;0.93;64.11
71573;BME280;59408;51.032;9.410;2023-12-04T12:19:04;98512.94;;;0.96;66.03
71573;BME280;59408;51.032;9.410;2023-12-04T12:21:32;98508.50;;;0.86;64.56
71573;BME280;59408;51.032;9.410;2023-12-04T12:23:59;98496.41;;;0.89;67.30
71573;BME280;59408;51.032;9.410;2023-12-04T12:26:26;98490.00;;;0.85;65.43
71573;BME280;59408;51.032;9.410;2023-12-04T12:28:54;98485.69;;;1.08;66.81
71573;BME280;59408;51.032;9.410;2023-12-04T12:31:20;98470.94;;;1.24;66.41
71573;BME280;59408;51.032;9.410;2023-12-04T12:33:50;98467.34;;;1.47;66.16
71573;BME280;59408;51.032;9.410;2023-12-04T12:36:17;98464.34;;;1.49;65.83
71573;BME280;59408;51.032;9.410;2023-12-04T12:38:44;98467.66;;;1.27;63.88
71573;BME280;59408;51.032;9.410;2023-12-04T12:41:12;98459.28;;;1.29;65.18
71573;BME280;59408;51.032;9.410;2023-12-04T12:43:38;98457.25;;;1.39;64.44
71573;BME280;59408;51.032;9.410;2023-12-04T12:46:05;98445.47;;;1.54;64.89
71573;BME280;59408;51.032;9.410;2023-12-04T12:48:32;98447.03;;;1.41;64.17
71573;BME280;59408;51.032;9.410;2023-12-04T12:51:02;98442.38;;;1.28;64.14
71573;BME280;59408;51.032;9.410;2023-12-04T12:53:32;98432.16;;;1.11;63.54
71573;BME280;59408;51.032;9.410;2023-12-04T12:55:59;98426.75;;;0.98;63.71
71573;BME280;59408;51.032;9.410;2023-12-04T12:58:26;98431.22;;;1.02;63.64
71573;BME280;59408;51.032;9.410;2023-12-04T13:00:53;98424.63;;;0.95;63.36